Time;durP1;ratioP1;P1;durP2;ratioP2;P2;SDS_P1;SDS_P2;PMS_P1;PMS_P2;Temp;Humidity;BMP_temperature;BMP_pressure;BME280_temperature;BME280_humidity;BME280_pressure;Samples;Min_cycle;Max_cycle;Signal;HPM_P1;HPM_P2
2022/11/03 00:01:37;;;;;;;13.35;2.45;;;;;;;14.61;57.96;101428.38;4942148;29;20051;-62
2022/11/03 00:04:06;;;;;;;8.23;2.13;;;;;;;14.61;57.82;101424.84;4943145;29;20143;-61
2022/11/03 00:06:34;;;;;;;8.43;2.35;;;;;;;14.59;57.98;101414.28;4943153;29;20147;-62
2022/11/03 00:09:05;;;;;;;9.75;2.67;;;;;;;14.61;57.92;101416.75;4961045;28;20046;-62
2022/11/03 00:11:34;;;;;;;10.40;3.10;;;;;;;14.60;57.51;101410.50;5001546;28;20050;-62
2022/11/03 00:14:02;;;;;;;9.27;2.28;;;;;;;14.61;57.63;101416.75;4991450;28;20531;-62
2022/11/03 00:16:30;;;;;;;8.45;2.35;;;;;;;14.60;57.83;101406.97;4982608;28;20587;-62
2022/11/03 00:18:59;;;;;;;8.40;2.40;;;;;;;14.60;57.76;101405.09;5001129;28;20069;-62
2022/11/03 00:21:27;;;;;;;7.38;2.40;;;;;;;14.59;57.70;101397.22;4974423;28;20134;-62
2022/11/03 00:23:55;;;;;;;9.38;2.42;;;;;;;14.58;57.85;101404.50;4981308;28;20057;-61
2022/11/03 00:26:24;;;;;;;9.20;2.20;;;;;;;14.57;57.71;101394.75;4980294;28;20054;-62
2022/11/03 00:28:54;;;;;;;8.23;2.67;;;;;;;14.58;57.62;101399.09;4966033;28;20039;-61
2022/11/03 00:31:24;;;;;;;7.18;2.20;;;;;;;14.55;57.64;101382.50;4987274;28;20044;-62
2022/11/03 00:33:52;;;;;;;6.65;2.03;;;;;;;14.57;57.85;101388.50;5076436;28;20041;-62
2022/11/03 00:36:22;;;;;;;9.10;1.92;;;;;;;14.56;57.92;101386.88;5074737;28;20048;-62
2022/11/03 00:38:50;;;;;;;11.82;2.80;;;;;;;14.54;57.90;101380.88;5071863;28;20052;-62
2022/11/03 00:41:19;;;;;;;7.88;2.03;;;;;;;14.55;57.88;101377.09;5082172;28;20044;-62
2022/11/03 00:43:48;;;;;;;7.65;2.20;;;;;;;14.54;57.99;101368.16;5081764;28;20074;-62
2022/11/03 00:46:16;;;;;;;9.23;2.40;;;;;;;14.54;57.88;101376.28;5076606;28;20048;-62
2022/11/03 00:48:44;;;;;;;11.98;2.58;;;;;;;14.55;57.87;101361.69;5062863;28;20059;-62
2022/11/03 00:51:14;;;;;;;9.52;2.25;;;;;;;14.54;57.89;101357.34;5073264;28;20048;-62
2022/11/03 00:53:45;;;;;;;10.18;2.15;;;;;;;14.53;57.89;101350.28;5074524;28;20053;-62
2022/11/03 00:56:15;;;;;;;10.50;2.95;;;;;;;14.54;58.04;101346.53;5082185;28;20047;-62
2022/11/03 00:58:43;;;;;;;5.50;1.85;;;;;;;14.53;57.72;101353.00;5062999;28;20052;-62
2022/11/03 01:01:13;;;;;;;7.20;2.13;;;;;;;14.54;57.74;101345.69;5078598;28;20044;-62
2022/11/03 01:06:48;;;;;;;8.52;2.95;;;;;;;14.53;57.68;101334.06;5073201;28;20053;-62
2022/11/03 01:06:50;;;;;;;10.77;2.70;;;;;;;14.53;57.88;101333.22;5080982;28;20076;-62
2022/11/03 01:09:21;;;;;;;10.15;2.10;;;;;;;14.52;57.67;101335.13;5078138;28;20052;-61
2022/11/03 01:11:58;;;;;;;6.82;2.38;;;;;;;14.52;57.72;101326.19;5075604;28;20055;-61
2022/11/03 01:14:28;;;;;;;9.57;2.67;;;;;;;14.49;57.75;101324.78;5062695;28;20059;-62
2022/11/03 01:16:55;;;;;;;12.05;2.70;;;;;;;14.52;57.56;101326.19;5080263;28;20044;-62
2022/11/03 01:19:24;;;;;;;7.43;2.75;;;;;;;14.52;57.69;101315.38;5075949;28;20036;-62
2022/11/03 01:21:52;;;;;;;7.85;2.22;;;;;;;14.51;57.85;101324.53;5082462;28;20135;-61
2022/11/03 01:24:21;;;;;;;8.40;2.28;;;;;;;14.50;57.69;101314.78;5083891;28;20071;-62
2022/11/03 01:26:49;;;;;;;8.13;2.20;;;;;;;14.48;57.87;101312.31;5078032;28;20045;-62
2022/11/03 01:29:17;;;;;;;8.93;2.33;;;;;;;14.49;57.78;101322.06;5084500;28;20139;-61
2022/11/03 01:31:45;;;;;;;13.57;2.20;;;;;;;14.48;58.10;101306.91;5083943;28;20063;-62
2022/11/03 01:34:15;;;;;;;9.32;2.30;;;;;;;14.49;57.79;101307.72;5066276;28;20080;-62
2022/11/03 01:36:43;;;;;;;9.73;2.03;;;;;;;14.48;58.24;101304.19;5085859;28;20055;-62
2022/11/03 01:39:12;;;;;;;7.75;2.38;;;;;;;14.48;57.87;101292.56;5077469;28;20113;-63
2022/11/03 01:41:42;;;;;;;7.38;1.90;;;;;;;14.39;57.88;101275.84;5076394;28;20055;-62
2022/11/03 01:44:30;;;;;;;6.75;2.03;;;;;;;14.48;58.18;101287.16;5086343;28;20048;-63
2022/11/03 01:47:16;;;;;;;7.82;2.60;;;;;;;14.48;58.11;101296.09;5079876;28;20047;-62
2022/11/03 01:49:49;;;;;;;10.27;2.05;;;;;;;14.47;58.44;101282.78;5080531;28;20057;-61
2022/11/03 01:52:22;;;;;;;7.72;2.50;;;;;;;14.47;58.48;101272.78;5080777;28;20147;-62
2022/11/03 01:54:54;;;;;;;7.85;2.20;;;;;;;14.47;57.73;101269.28;5083201;28;20048;-62
2022/11/03 01:57:28;;;;;;;8.20;2.33;;;;;;;14.48;58.11;101270.91;5081933;28;20150;-62
2022/11/03 01:59:58;;;;;;;8.05;2.00;;;;;;;14.47;57.98;101261.97;5079086;28;20049;-62
2022/11/03 02:02:26;;;;;;;9.63;2.42;;;;;;;14.47;58.11;101264.69;5074921;28;20041;-62
2022/11/03 02:04:58;;;;;;;8.90;2.47;;;;;;;14.47;58.24;101271.97;5067158;28;20081;-62
2022/11/03 02:07:32;;;;;;;7.07;2.00;;;;;;;14.46;57.99;101262.22;5075397;28;20041;-62
2022/11/03 02:10:01;;;;;;;7.65;1.83;;;;;;;14.47;58.19;101250.34;5071202;28;20041;-62
2022/11/03 02:12:31;;;;;;;7.25;1.90;;;;;;;14.45;57.97;101249.75;5081916;28;20057;-62
2022/11/03 02:15:06;;;;;;;9.48;2.30;;;;;;;14.44;58.24;101248.09;5083940;28;20051;-62
2022/11/03 02:17:35;;;;;;;12.18;2.70;;;;;;;14.44;58.13;101242.69;5075692;28;20044;-62
2022/11/03 02:20:07;;;;;;;7.80;2.28;;;;;;;14.43;58.17;101244.59;5076971;28;20048;-62
2022/11/03 02:23:00;;;;;;;6.55;2.15;;;;;;;14.43;58.38;101238.34;5073444;28;20056;-62
2022/11/03 02:25:46;;;;;;;6.88;2.08;;;;;;;14.42;58.45;101242.13;5066891;28;20120;-62
2022/11/03 02:28:16;;;;;;;10.60;2.10;;;;;;;14.41;58.31;101243.97;5075738;28;20365;-62
2022/11/03 02:30:49;;;;;;;11.48;2.42;;;;;;;14.40;58.29;101223.41;5065216;28;20056;-62
2022/11/03 02:33:28;;;;;;;11.88;2.42;;;;;;;14.41;58.42;101232.34;5072472;28;20057;-62
2022/11/03 02:36:03;;;;;;;9.68;2.38;;;;;;;14.39;58.26;101229.03;5080505;28;20067;-62
2022/11/03 02:38:34;;;;;;;5.47;2.03;;;;;;;14.38;58.17;101214.69;5081740;28;20049;-62
2022/11/03 02:41:08;;;;;;;6.90;1.70;;;;;;;14.41;58.00;101208.00;5078184;28;20044;-62
2022/11/03 02:43:36;;;;;;;8.38;2.30;;;;;;;14.41;58.50;101214.22;5076064;28;20041;-62
2022/11/03 02:46:05;;;;;;;9.05;2.47;;;;;;;14.40;58.44;101196.34;5068743;28;20130;-62
2022/11/03 02:48:33;;;;;;;7.97;1.80;;;;;;;14.40;58.45;101209.06;5081941;28;20045;-62
2022/11/03 02:51:03;;;;;;;7.10;2.00;;;;;;;14.40;58.38;101198.22;5079056;28;20045;-62
2022/11/03 02:53:31;;;;;;;8.43;2.10;;;;;;;14.38;58.40;101193.06;5068854;28;20055;-62
2022/11/03 02:56:06;;;;;;;11.10;2.63;;;;;;;14.39;58.56;101188.47;5083926;28;20056;-62
2022/11/03 02:58:39;;;;;;;6.90;1.98;;;;;;;14.39;58.29;101183.06;5066301;28;20047;-62
2022/11/03 03:01:14;;;;;;;9.95;3.13;;;;;;;14.38;58.44;101186.84;5080679;28;20044;-61
2022/11/03 03:03:46;;;;;;;10.55;2.70;;;;;;;14.38;58.62;101179.53;5080068;28;20072;-62
2022/11/03 03:06:19;;;;;;;9.88;3.10;;;;;;;14.38;58.57;101176.03;5081492;28;20071;-62
2022/11/03 03:08:51;;;;;;;9.95;2.22;;;;;;;14.38;58.78;101181.44;5069339;28;20481;-62
2022/11/03 03:11:35;;;;;;;4.43;1.80;;;;;;;14.37;58.70;101167.09;5081286;28;20048;-61
2022/11/03 03:14:09;;;;;;;7.78;2.38;;;;;;;14.37;58.79;101168.97;5068359;28;20103;-62
2022/11/03 03:16:44;;;;;;;9.00;2.17;;;;;;;14.38;58.65;101157.91;5074535;28;20049;-61
2022/11/03 03:19:21;;;;;;;8.75;2.20;;;;;;;14.40;58.76;101163.09;5082799;28;20048;-62
2022/11/03 03:21:52;;;;;;;10.40;2.90;;;;;;;14.39;58.48;101150.63;5068649;28;20040;-62
2022/11/03 03:24:28;;;;;;;7.07;1.95;;;;;;;14.38;58.66;101149.81;5081413;28;20044;-62
2022/11/03 03:27:01;;;;;;;7.72;1.98;;;;;;;14.37;58.44;101145.47;5077357;28;20048;-61
2022/11/03 03:29:36;;;;;;;8.50;2.55;;;;;;;14.37;58.49;101144.63;5068353;28;20067;-61
2022/11/03 03:32:07;;;;;;;6.70;2.08;;;;;;;14.36;58.57;101141.09;5081613;28;20139;-61
2022/11/03 03:34:39;;;;;;;10.23;2.53;;;;;;;14.36;58.70;101149.22;5077827;28;20139;-62
2022/11/03 03:37:08;;;;;;;7.70;2.72;;;;;;;14.31;58.68;101132.91;5078547;28;20122;-62
2022/11/03 03:39:40;;;;;;;6.65;2.22;;;;;;;14.36;59.00;101145.69;5083438;28;20040;-62
2022/11/03 03:42:10;;;;;;;8.48;2.00;;;;;;;14.33;59.13;101128.88;5082608;28;20870;-62
2022/11/03 03:44:42;;;;;;;6.38;2.33;;;;;;;14.34;58.96;101130.53;5077549;28;20045;-62
2022/11/03 03:47:17;;;;;;;10.40;2.17;;;;;;;14.34;58.81;101135.13;5076683;28;20047;-62
2022/11/03 03:49:45;;;;;;;6.65;1.77;;;;;;;14.33;58.88;101128.88;5083802;28;20108;-62
2022/11/03 03:52:13;;;;;;;10.25;2.35;;;;;;;14.33;59.25;101114.53;5072173;28;20068;-62
2022/11/03 03:54:41;;;;;;;11.45;2.92;;;;;;;14.34;59.02;101118.91;5076650;28;20412;-62
2022/11/03 03:57:15;;;;;;;6.68;2.22;;;;;;;14.34;59.04;101116.19;5081277;28;20058;-62
2022/11/03 03:59:43;;;;;;;10.40;2.50;;;;;;;14.33;58.96;101104.56;5080518;28;20052;-62
2022/11/03 04:02:11;;;;;;;6.00;2.35;;;;;;;14.33;59.00;101115.38;5077478;28;20052;-62
2022/11/03 04:04:39;;;;;;;5.50;1.83;;;;;;;14.34;59.01;101116.19;5082373;28;20205;-62
2022/11/03 04:09:53;;;;;;;7.70;2.83;;;;;;;14.33;59.02;101104.56;5071402;28;20451;-62
2022/11/03 04:23:28;;;;;;;6.40;1.77;;;;;;;14.33;59.38;101092.91;5079804;28;20053;-62
2022/11/03 04:25:57;;;;;;;7.32;2.42;;;;;;;14.32;59.41;101093.97;5083361;28;20044;-62
2022/11/03 04:28:26;;;;;;;6.32;2.00;;;;;;;14.32;59.49;101086.69;5082631;28;20070;-62
2022/11/03 04:30:57;;;;;;;11.35;2.33;;;;;;;14.31;59.66;101084.22;5080530;28;20048;-62
2022/11/03 04:33:26;;;;;;;8.63;2.70;;;;;;;14.31;59.34;101071.53;5069111;28;20041;-62
2022/11/03 04:35:57;;;;;;;6.70;2.17;;;;;;;14.31;59.81;101068.00;5079652;28;20637;-62
2022/11/03 04:38:26;;;;;;;8.32;2.15;;;;;;;14.30;59.55;101075.28;5080513;28;20054;-63
2022/11/03 04:40:56;;;;;;;6.30;1.83;;;;;;;14.30;59.62;101069.88;5074770;28;20071;-62
2022/11/03 04:43:32;;;;;;;8.27;2.20;;;;;;;14.30;59.72;101069.88;5080353;28;20048;-62
2022/11/03 04:46:00;;;;;;;8.07;2.20;;;;;;;14.29;59.53;101062.84;5077384;28;20052;-62
2022/11/03 04:48:29;;;;;;;7.15;1.95;;;;;;;14.30;59.78;101064.47;5070150;28;20048;-62
2022/11/03 04:51:00;;;;;;;8.50;1.92;;;;;;;14.31;59.46;101062.59;5073530;28;20055;-62
2022/11/03 04:53:31;;;;;;;8.10;1.83;;;;;;;14.31;59.48;101059.91;5078754;28;20489;-62
2022/11/03 04:55:59;;;;;;;8.25;2.22;;;;;;;14.30;59.96;101055.53;5080312;28;20363;-62
2022/11/03 04:58:36;;;;;;;6.65;1.73;;;;;;;14.29;59.96;101051.19;5082162;28;20503;-62
2022/11/03 05:01:08;;;;;;;8.63;2.72;;;;;;;14.28;59.79;101053.09;5082420;28;20062;-62
2022/11/03 05:03:37;;;;;;;8.02;2.20;;;;;;;14.28;59.76;101044.97;5066917;28;20048;-62
2022/11/03 05:06:11;;;;;;;6.22;1.95;;;;;;;14.28;59.87;101046.84;5082497;28;20053;-62
2022/11/03 05:08:39;;;;;;;10.02;2.05;;;;;;;14.28;59.54;101036.88;5079448;28;20109;-63
2022/11/03 05:11:14;;;;;;;5.80;1.50;;;;;;;14.28;59.81;101028.75;5073421;28;20051;-63
2022/11/03 05:13:44;;;;;;;11.80;2.40;;;;;;;14.29;59.92;101034.97;5074423;28;20074;-63
2022/11/03 05:16:12;;;;;;;4.88;2.17;;;;;;;14.29;60.00;101029.56;5079934;28;20053;-63
2022/11/03 05:18:42;;;;;;;10.80;2.35;;;;;;;14.29;60.15;101032.28;5080786;28;20044;-63
2022/11/03 05:21:13;;;;;;;7.63;2.40;;;;;;;14.27;60.16;101027.13;5078267;28;20054;-62
2022/11/03 05:23:44;;;;;;;8.23;2.10;;;;;;;14.28;60.00;101023.34;5068267;28;20049;-63
2022/11/03 05:26:16;;;;;;;6.00;1.90;;;;;;;14.27;60.54;101010.06;5080472;28;20116;-63
2022/11/03 05:28:48;;;;;;;7.55;2.15;;;;;;;14.28;59.95;101006.31;5081934;28;20044;-63
2022/11/03 05:31:22;;;;;;;8.30;1.75;;;;;;;14.28;60.27;101003.59;5081373;28;20111;-61
2022/11/03 05:33:52;;;;;;;7.10;1.92;;;;;;;14.22;60.17;100983.75;5081187;28;20059;-62
2022/11/03 05:36:22;;;;;;;8.50;2.00;;;;;;;14.28;60.39;100996.31;5082527;28;20050;-62
2022/11/03 05:38:51;;;;;;;8.23;2.25;;;;;;;14.27;60.71;100986.56;5077940;28;20051;-62
2022/11/03 05:41:22;;;;;;;9.05;2.30;;;;;;;14.26;60.29;100987.63;5082042;28;20049;-62
2022/11/03 05:43:57;;;;;;;8.18;1.95;;;;;;;14.26;60.49;100982.22;5081999;28;20063;-61
2022/11/03 05:46:29;;;;;;;8.95;2.00;;;;;;;14.25;60.40;100980.56;5079420;28;20062;-62
2022/11/03 05:48:58;;;;;;;8.73;2.08;;;;;;;14.26;60.33;100979.50;5080281;28;20052;-62
2022/11/03 05:51:34;;;;;;;9.52;2.25;;;;;;;14.27;60.50;100969.53;5065279;28;20049;-61
2022/11/03 05:54:06;;;;;;;7.85;2.10;;;;;;;14.26;60.60;100970.59;5071459;28;20051;-62
2022/11/03 05:56:35;;;;;;;9.50;2.22;;;;;;;14.26;60.70;100962.47;5078959;28;20060;-62
2022/11/03 05:59:05;;;;;;;7.95;2.13;;;;;;;14.26;60.24;100965.19;5081676;28;20036;-62
2022/11/03 06:01:35;;;;;;;8.73;2.15;;;;;;;14.26;60.54;100966.00;5068751;28;20051;-62
2022/11/03 06:04:17;;;;;;;13.07;3.40;;;;;;;14.22;60.56;100962.13;5081675;28;20086;-62
2022/11/03 06:06:50;;;;;;;7.82;2.75;;;;;;;14.27;60.87;100954.13;5080005;28;20049;-62
2022/11/03 06:09:21;;;;;;;6.72;1.88;;;;;;;14.28;60.67;100949.53;5077135;28;20100;-62
2022/11/03 06:11:51;;;;;;;6.13;1.80;;;;;;;14.27;60.98;100943.31;5085358;28;20060;-64
2022/11/03 06:14:21;;;;;;;11.20;2.58;;;;;;;14.28;60.65;100941.41;5082448;28;20303;-62
2022/11/03 06:16:53;;;;;;;6.50;2.13;;;;;;;14.28;60.47;100936.84;5078772;28;20049;-65
2022/11/03 06:19:25;;;;;;;8.50;2.13;;;;;;;14.27;60.67;100945.19;5069429;28;20108;-64
2022/11/03 06:21:57;;;;;;;4.97;1.70;;;;;;;14.27;60.67;100932.50;5074508;28;20083;-62
2022/11/03 06:24:29;;;;;;;6.53;2.05;;;;;;;14.28;60.81;100925.19;5084423;28;20052;-64
2022/11/03 06:26:58;;;;;;;7.03;2.47;;;;;;;14.29;60.99;100927.66;5078555;28;20044;-62
2022/11/03 06:29:32;;;;;;;8.50;1.65;;;;;;;14.28;60.53;100923.31;5080888;28;20044;-62
2022/11/03 06:32:01;;;;;;;7.18;2.30;;;;;;;14.28;61.09;100923.31;5080375;28;20048;-64
2022/11/03 06:34:39;;;;;;;9.68;2.30;;;;;;;14.28;60.68;100923.31;5080802;28;20555;-63
2022/11/03 06:37:18;;;;;;;8.05;1.77;;;;;;;14.29;60.97;100916.84;5075403;28;20044;-63
2022/11/03 06:39:46;;;;;;;6.68;1.92;;;;;;;14.29;60.71;100918.72;5079937;28;20103;-63
2022/11/03 06:42:17;;;;;;;10.02;2.33;;;;;;;14.30;60.96;100920.38;5078884;28;20416;-63
2022/11/03 06:44:48;;;;;;;5.72;2.08;;;;;;;14.29;60.91;100913.31;5076706;28;20548;-63
2022/11/03 06:47:22;;;;;;;8.38;2.13;;;;;;;14.32;61.46;100910.94;5081227;28;20048;-61
2022/11/03 06:49:52;;;;;;;7.20;1.92;;;;;;;14.50;60.84;100911.81;5076112;28;20056;-62
2022/11/03 06:52:28;;;;;;;11.45;2.53;;;;;;;14.49;61.09;100904.75;5080199;28;20057;-63
2022/11/03 06:55:16;;;;;;;5.05;2.05;;;;;;;14.41;61.11;100919.47;4720326;28;10000623;-62
2022/11/03 06:57:44;;;;;;;;;;;;;;;14.36;61.14;100907.75;5076304;28;20052;-61
2022/11/03 07:00:19;;;;;;;5.75;1.75;;;;;;;14.34;61.04;100906.13;5080485;28;20369;-61
2022/11/03 07:03:05;;;;;;;6.57;1.85;;;;;;;14.31;61.30;100903.09;5080061;28;20060;-61
2022/11/03 07:05:34;;;;;;;7.03;2.10;;;;;;;14.34;61.18;100897.19;5078425;28;20312;-62
2022/11/03 07:08:11;;;;;;;6.75;2.33;;;;;;;14.33;61.37;100907.19;5078441;28;20052;-62
2022/11/03 07:10:39;;;;;;;6.55;2.53;;;;;;;14.34;61.66;100900.72;5081554;28;20048;-62
2022/11/03 07:13:18;;;;;;;10.35;2.47;;;;;;;14.30;61.75;100901.44;5081998;28;20044;-62
2022/11/03 07:15:47;;;;;;;9.95;2.05;;;;;;;14.29;61.84;100892.50;5083181;28;20072;-62
2022/11/03 07:18:21;;;;;;;6.25;1.83;;;;;;;14.30;61.37;100886.03;5083768;28;20353;-63
2022/11/03 07:20:49;;;;;;;6.70;2.15;;;;;;;14.32;61.15;100883.09;5082784;28;20045;-63
2022/11/03 07:23:20;;;;;;;11.13;2.67;;;;;;;14.33;61.59;100893.66;5080380;28;20253;-62
2022/11/03 07:25:53;;;;;;;6.40;1.90;;;;;;;14.47;61.54;100880.66;5082229;28;20044;-63
2022/11/03 07:28:24;;;;;;;7.45;1.95;;;;;;;14.39;61.49;100875.63;5071502;28;20069;-63
2022/11/03 07:30:53;;;;;;;9.20;2.00;;;;;;;14.40;61.80;100871.06;5078844;28;20063;-63
2022/11/03 07:33:25;;;;;;;6.95;2.42;;;;;;;14.38;61.63;100870.47;4722120;28;9999700;-62
2022/11/03 07:35:56;;;;;;;7.75;2.00;;;;;;;14.37;61.47;100858.03;5072796;28;20060;-63
2022/11/03 07:38:47;;;;;;;9.30;1.60;;;;;;;14.40;62.17;100857.53;5080617;28;20059;-63
2022/11/03 07:41:19;;;;;;;10.35;1.83;;;;;;;14.44;62.94;100853.31;5073697;28;20048;-63
2022/11/03 07:43:54;;;;;;;5.88;1.95;;;;;;;14.48;61.68;100865.25;5079901;28;20044;-63
2022/11/03 07:46:25;;;;;;;9.88;2.78;;;;;;;14.43;61.51;100868.69;5078887;28;20071;-63
2022/11/03 07:48:55;;;;;;;7.30;2.28;;;;;;;14.31;61.40;100863.34;5092035;28;20056;-63
2022/11/03 07:51:26;;;;;;;7.13;2.03;;;;;;;14.38;61.73;100865.88;5086184;28;20048;-63
2022/11/03 07:53:56;;;;;;;7.10;1.65;;;;;;;14.37;62.02;100871.53;5087718;28;20062;-63
2022/11/03 07:56:27;;;;;;;8.40;2.00;;;;;;;14.38;62.10;100871.28;5073472;28;20056;-63
2022/11/03 07:58:59;;;;;;;10.77;2.55;;;;;;;14.38;61.49;100876.72;5071239;28;20299;-62
2022/11/03 08:01:31;;;;;;;7.32;2.30;;;;;;;14.40;61.91;100873.75;5072909;28;20058;-63
2022/11/03 08:04:04;;;;;;;10.15;2.10;;;;;;;14.40;61.71;100871.88;5070766;28;20048;-63
2022/11/03 08:06:32;;;;;;;9.65;3.33;;;;;;;14.43;61.93;100867.88;5069206;28;20040;-62
2022/11/03 08:09:00;;;;;;;7.55;2.38;;;;;;;14.45;62.23;100854.94;5079875;28;20053;-64
2022/11/03 08:11:28;;;;;;;5.20;1.52;;;;;;;14.43;61.64;100852.47;5065625;28;20121;-64
2022/11/03 08:13:57;;;;;;;12.32;2.42;;;;;;;14.49;61.65;100846.09;5068459;28;20075;-64
2022/11/03 08:16:24;;;;;;;4.90;1.98;;;;;;;14.65;61.24;100847.13;5078813;28;20076;-64
2022/11/03 08:18:54;;;;;;;4.15;1.70;;;;;;;14.83;60.40;100840.63;5066445;28;20636;-69
2022/11/03 08:21:21;;;;;;;6.07;1.95;;;;;;;15.05;59.70;100827.09;5060274;28;20051;-64
2022/11/03 08:23:49;;;;;;;9.75;2.10;;;;;;;15.18;59.36;100827.53;5080122;28;20052;-63
2022/11/03 08:26:17;;;;;;;6.70;1.98;;;;;;;15.34;58.54;100812.28;5075630;28;20059;-63
2022/11/03 08:28:45;;;;;;;7.82;2.03;;;;;;;15.44;58.52;100803.44;5074159;28;20052;-63
2022/11/03 08:31:13;;;;;;;7.40;2.33;;;;;;;15.72;57.68;100796.94;5074693;28;20347;-63
2022/11/03 08:33:41;;;;;;;6.75;1.90;;;;;;;15.78;57.26;100794.03;5081634;28;20052;-63
2022/11/03 08:36:10;;;;;;;4.97;1.75;;;;;;;15.90;57.01;100791.97;5100757;28;20048;-63
2022/11/03 08:38:38;;;;;;;6.50;1.95;;;;;;;15.93;57.11;100780.59;5082969;28;20143;-63
2022/11/03 08:41:06;;;;;;;6.18;2.00;;;;;;;15.91;57.31;100773.81;5083124;28;20051;-63
2022/11/03 08:43:33;;;;;;;9.40;1.90;;;;;;;15.85;57.84;100759.41;5082441;28;20053;-63
2022/11/03 08:46:01;;;;;;;5.65;2.45;;;;;;;15.84;58.37;100741.50;5081924;28;20074;-63
2022/11/03 08:48:42;;;;;;;8.45;2.47;;;;;;;15.72;57.80;100746.28;5062099;28;20057;-63
2022/11/03 08:51:12;;;;;;;7.93;1.88;;;;;;;15.55;58.21;100749.13;5063081;28;20047;-63
2022/11/03 08:53:41;;;;;;;10.57;2.22;;;;;;;15.42;58.61;100746.84;5078958;28;20087;-63
2022/11/03 08:56:09;;;;;;;10.75;2.53;;;;;;;15.29;59.09;100739.94;5081737;28;20444;-67
2022/11/03 08:58:41;;;;;;;6.82;1.80;;;;;;;15.26;59.51;100732.31;5078570;28;20052;-64
2022/11/03 09:01:08;;;;;;;6.30;1.67;;;;;;;15.25;60.07;100722.56;5074428;28;20504;-63
2022/11/03 09:03:36;;;;;;;7.97;2.47;;;;;;;15.23;59.40;100716.59;5074528;28;20067;-64
2022/11/03 09:06:04;;;;;;;6.47;1.92;;;;;;;15.21;60.29;100712.50;5081401;28;20147;-66
2022/11/03 09:08:33;;;;;;;14.02;2.05;;;;;;;15.26;61.07;100699.00;5078301;28;20131;-65
2022/11/03 09:11:21;;;;;;;10.85;2.28;;;;;;;15.30;60.54;100702.84;5077358;28;20053;-65
2022/11/03 09:13:49;;;;;;;8.70;2.15;;;;;;;15.36;60.42;100687.47;5073947;28;20060;-65
2022/11/03 09:16:17;;;;;;;8.75;3.50;;;;;;;15.28;60.45;100686.03;5066445;28;20049;-66
2022/11/03 09:18:45;;;;;;;5.72;2.35;;;;;;;15.20;60.34;100679.19;5063060;28;20076;-65
2022/11/03 09:21:13;;;;;;;7.72;3.33;;;;;;;15.16;60.31;100672.66;5077057;28;20040;-65
2022/11/03 09:23:42;;;;;;;10.63;3.40;;;;;;;15.08;60.34;100658.78;5082174;28;20048;-66
2022/11/03 09:26:10;;;;;;;7.80;3.55;;;;;;;15.00;60.51;100645.69;5082848;28;20048;-66
2022/11/03 09:28:38;;;;;;;8.98;3.97;;;;;;;14.97;60.86;100641.63;5079381;28;20144;-65
2022/11/03 09:31:06;;;;;;;7.82;3.42;;;;;;;14.96;60.88;100640.00;5077127;28;20051;-65
2022/11/03 09:33:33;;;;;;;14.85;5.03;;;;;;;14.93;60.81;100632.38;5080971;28;20041;-66
2022/11/03 09:36:01;;;;;;;11.15;5.35;;;;;;;14.91;61.00;100632.63;5077389;28;20045;-65
2022/11/03 09:38:29;;;;;;;12.07;5.90;;;;;;;14.91;60.79;100631.81;5078994;28;20047;-65
2022/11/03 09:40:58;;;;;;;12.82;5.75;;;;;;;14.90;60.89;100622.88;5082620;28;20061;-65
2022/11/03 09:43:26;;;;;;;23.83;9.95;;;;;;;15.05;62.35;100616.78;5084210;28;20044;-65
2022/11/03 09:45:54;;;;;;;11.57;6.88;;;;;;;15.06;61.00;100613.03;5086058;28;20048;-65
2022/11/03 09:48:22;;;;;;;13.30;5.97;;;;;;;14.99;60.83;100607.00;5084965;28;20108;-65
2022/11/03 09:50:53;;;;;;;10.98;6.82;;;;;;;14.95;61.08;100606.69;5066779;28;20049;-66
2022/11/03 09:53:21;;;;;;;19.17;7.47;;;;;;;14.96;61.37;100597.50;5080669;28;20048;-66
2022/11/03 09:55:49;;;;;;;13.48;7.82;;;;;;;14.96;61.16;100600.22;5076486;28;20060;-66
2022/11/03 09:58:18;;;;;;;16.98;9.10;;;;;;;14.98;61.26;100581.00;5085781;28;20416;-66
2022/11/03 10:00:46;;;;;;;12.18;6.10;;;;;;;15.13;60.54;100583.84;5084897;28;20446;-65
2022/11/03 10:03:16;;;;;;;15.93;9.35;;;;;;;15.09;61.27;100584.63;5084299;28;20048;-66
2022/11/03 10:05:45;;;;;;;12.40;6.50;;;;;;;15.02;60.60;100579.41;5082212;28;20479;-65
2022/11/03 10:08:26;;;;;;;12.60;6.32;;;;;;;15.00;60.65;100578.03;5084714;28;20045;-65
2022/11/03 10:10:54;;;;;;;12.55;5.78;;;;;;;14.98;60.84;100573.72;5071224;28;20052;-64
2022/11/03 10:13:29;;;;;;;14.75;7.57;;;;;;;15.11;61.19;100550.81;5066182;28;20440;-64
2022/11/03 10:15:58;;;;;;;10.45;5.35;;;;;;;15.12;60.69;100559.75;5072665;28;20056;-65
2022/11/03 10:18:27;;;;;;;14.48;7.20;;;;;;;15.04;61.19;100555.63;5075836;28;20424;-65
2022/11/03 10:20:55;;;;;;;10.88;5.10;;;;;;;15.01;60.68;100555.31;5085711;28;20059;-64
2022/11/03 10:23:23;;;;;;;11.80;5.25;;;;;;;14.96;60.97;100550.69;5085543;28;20049;-64
2022/11/03 10:25:51;;;;;;;13.30;6.35;;;;;;;14.94;61.65;100542.81;5084218;28;20052;-64
2022/11/03 10:28:21;;;;;;;10.32;6.20;;;;;;;14.97;61.42;100541.50;5081595;28;20054;-64
2022/11/03 10:30:53;;;;;;;11.73;4.65;;;;;;;14.94;61.27;100534.69;5085230;28;20048;-64
2022/11/03 10:33:40;;;;;;;15.45;8.63;;;;;;;15.18;61.81;100518.91;5081244;28;20060;-64
2022/11/03 10:36:23;;;;;;;9.45;3.97;;;;;;;15.13;60.79;100532.41;5079734;28;20049;-63
2022/11/03 10:38:51;;;;;;;12.65;5.28;;;;;;;15.06;60.80;100525.59;5076584;28;20052;-63
2022/11/03 10:41:20;;;;;;;9.45;4.35;;;;;;;14.98;60.89;100522.28;5085251;28;20051;-63
2022/11/03 10:44:00;;;;;;;15.02;6.70;;;;;;;15.01;61.91;100520.97;5085496;28;20053;-63
2022/11/03 10:46:29;;;;;;;11.38;4.47;;;;;;;15.01;61.09;100517.44;5084326;28;20049;-63
2022/11/03 10:49:18;;;;;;;13.88;5.43;;;;;;;15.05;61.31;100513.13;5078302;28;20053;-63
2022/11/03 10:51:50;;;;;;;10.20;4.82;;;;;;;15.03;61.27;100518.81;5077043;28;20053;-63
2022/11/03 10:54:21;;;;;;;12.88;5.13;;;;;;;14.98;61.15;100508.75;5071902;28;20171;-63
2022/11/03 10:56:50;;;;;;;16.17;6.50;;;;;;;14.95;61.74;100503.88;5074580;28;20044;-63
2022/11/03 10:59:20;;;;;;;10.60;5.28;;;;;;;15.08;61.23;100504.50;5084003;28;20070;-64
2022/11/03 11:01:49;;;;;;;12.82;5.40;;;;;;;15.21;61.71;100501.34;5084683;28;20055;-63
2022/11/03 11:04:19;;;;;;;13.40;5.70;;;;;;;15.19;60.84;100495.38;5078615;28;20075;-64
2022/11/03 11:06:48;;;;;;;11.88;5.50;;;;;;;15.09;61.11;100485.28;5078047;28;20075;-63
2022/11/03 11:09:21;;;;;;;17.45;4.85;;;;;;;15.06;60.96;100485.00;5074560;28;20048;-64
2022/11/03 11:12:03;;;;;;;13.25;4.55;;;;;;;15.03;62.12;100482.81;5084959;28;20051;-64
2022/11/03 11:14:38;;;;;;;10.82;4.28;;;;;;;14.96;61.53;100464.09;5079094;28;20177;-64
2022/11/03 11:17:40;;;;;;;11.77;4.28;;;;;;;15.19;60.75;100468.31;5078749;28;20056;-64
2022/11/03 11:20:30;;;;;;;10.63;4.78;;;;;;;15.27;61.71;100468.63;5082384;28;20086;-64
2022/11/03 11:23:27;;;;;;;9.10;3.92;;;;;;;15.16;60.77;100472.34;5076617;28;20054;-64
2022/11/03 11:26:12;;;;;;;8.13;3.75;;;;;;;15.12;60.96;100465.00;5082394;28;20052;-64
2022/11/03 11:28:42;;;;;;;8.25;3.60;;;;;;;15.15;61.21;100448.25;5083507;28;20139;-64
2022/11/03 11:31:30;;;;;;;7.85;3.85;;;;;;;15.14;60.99;100447.44;5087819;28;20044;-64
2022/11/03 11:34:39;;;;;;;8.75;3.33;;;;;;;15.14;61.25;100439.31;5096526;28;20054;-64
2022/11/03 11:37:32;;;;;;;8.60;3.20;;;;;;;15.17;60.76;100425.25;5071292;28;20049;-64
2022/11/03 11:40:00;;;;;;;8.10;3.15;;;;;;;15.18;60.76;100413.34;5082110;28;20052;-64
2022/11/03 11:42:28;;;;;;;7.25;3.25;;;;;;;15.19;60.71;100411.44;5084122;28;20052;-64
2022/11/03 11:45:02;;;;;;;10.02;2.90;;;;;;;15.19;60.80;100406.03;5083982;28;20049;-63
2022/11/03 11:47:33;;;;;;;5.90;3.00;;;;;;;15.20;61.05;100399.53;5084156;28;20136;-64
2022/11/03 11:50:22;;;;;;;9.50;3.28;;;;;;;15.25;61.33;100386.03;5082926;28;20112;-64
2022/11/03 11:52:55;;;;;;;8.30;3.03;;;;;;;15.29;60.93;100376.31;5083426;28;20074;-64
2022/11/03 11:55:36;;;;;;;9.45;2.65;;;;;;;15.27;60.26;100360.31;5083181;28;20045;-64
2022/11/03 11:58:12;;;;;;;9.40;3.30;;;;;;;15.27;60.90;100354.91;5084123;28;20110;-65